Terminal Aerodrome Forecast
Issued by NWS

Home | Current Version | Previous Version | Text Only | Print | Product List | Glossary On
Versions: 1 2 3 4 5 6 7 8 9 10 11 12 13 14 15 16 17 18
000
FTUS43 KDVN 301900 AAA
TAFCID
TAF AMD
KCID 301908Z 3019/0118 10009KT P6SM SCT025
     FM011300 13009KT 4SM BR VCSH BKN025 OVC070=

USA.gov is the U.S. government's official web portal to all federal, state and local government web resources and services.